createdAt,value
2022-12-14T00:02:48.275Z,15.93
2022-12-14T00:05:50.281Z,17.13
2022-12-14T00:08:54.336Z,15.50
2022-12-14T00:11:56.194Z,17.50
2022-12-14T00:14:58.069Z,18.92
2022-12-14T00:18:00.420Z,16.48
2022-12-14T00:21:08.377Z,18.60
2022-12-14T00:24:10.597Z,16.55
2022-12-14T00:27:12.516Z,18.05
2022-12-14T00:30:17.645Z,16.45
2022-12-14T00:33:19.487Z,16.92
2022-12-14T00:36:22.875Z,17.08
2022-12-14T00:39:24.774Z,18.35
2022-12-14T00:42:26.609Z,17.88
2022-12-14T00:45:28.498Z,15.75
2022-12-14T00:48:32.347Z,15.82
2022-12-14T00:51:34.479Z,18.67
2022-12-14T00:54:36.327Z,16.10
2022-12-14T00:57:38.198Z,14.10
2022-12-14T01:00:40.608Z,16.08
2022-12-14T01:03:42.676Z,14.63
2022-12-14T01:06:46.308Z,14.02
2022-12-14T01:09:48.546Z,14.73
2022-12-14T01:12:50.409Z,13.80
2022-12-14T01:15:52.466Z,13.57
2022-12-14T01:18:54.423Z,13.38
2022-12-14T01:21:56.323Z,14.32
2022-12-14T01:24:58.163Z,12.85
2022-12-14T01:28:00.078Z,15.27
2022-12-14T01:31:13.966Z,14.82
2022-12-14T01:34:16.063Z,13.65
2022-12-14T01:37:17.879Z,14.17
2022-12-14T01:40:19.793Z,12.90
2022-12-14T01:43:21.653Z,14.85
2022-12-14T01:46:38.878Z,14.77
2022-12-14T01:49:50.481Z,16.10
2022-12-14T01:52:56.939Z,15.68
2022-12-14T01:55:58.829Z,15.18
2022-12-14T01:59:05.533Z,15.25
2022-12-14T02:02:11.606Z,15.52
2022-12-14T02:05:15.279Z,16.40
2022-12-14T02:08:19.502Z,15.43
2022-12-14T02:11:32.020Z,16.60
2022-12-14T02:14:34.392Z,18.08
2022-12-14T02:17:36.432Z,15.02
2022-12-14T02:20:50.650Z,16.30
2022-12-14T02:24:20.047Z,16.48
2022-12-14T02:27:57.303Z,14.23
2022-12-14T02:31:25.849Z,14.40
2022-12-14T02:35:22.996Z,15.95
2022-12-14T02:38:33.507Z,13.50
2022-12-14T02:41:56.374Z,13.93
2022-12-14T02:45:10.885Z,14.23
2022-12-14T02:48:26.214Z,13.18
2022-12-14T02:51:56.752Z,12.85
2022-12-14T02:55:18.380Z,14.82
2022-12-14T02:58:42.385Z,12.50
2022-12-14T03:01:47.743Z,13.93
2022-12-14T03:04:50.788Z,12.27
2022-12-14T03:11:05.847Z,11.23
2022-12-14T03:14:20.172Z,11.43
2022-12-14T03:17:27.367Z,11.75
2022-12-14T03:20:32.571Z,13.38
2022-12-14T03:23:38.304Z,12.85
2022-12-14T03:26:47.903Z,11.20
2022-12-14T03:29:58.809Z,11.55
2022-12-14T03:33:06.713Z,10.30
2022-12-14T03:36:11.606Z,10.85
2022-12-14T03:39:21.653Z,10.45
2022-12-14T03:42:39.700Z,11.32
2022-12-14T03:45:44.315Z,13.15
2022-12-14T03:48:56.434Z,10.50
2022-12-14T03:52:20.925Z,11.45
2022-12-14T03:55:22.797Z,11.38
2022-12-14T03:58:46.285Z,11.52
2022-12-14T04:01:49.221Z,8.95
2022-12-14T04:05:15.199Z,7.78
2022-12-14T04:09:09.869Z,8.68
2022-12-14T04:12:35.541Z,8.43
2022-12-14T04:15:59.641Z,7.28
2022-12-14T04:19:07.508Z,9.20
2022-12-14T04:22:14.698Z,9.43
2022-12-14T04:25:41.420Z,6.93
2022-12-14T04:29:31.040Z,8.00
2022-12-14T04:32:38.869Z,7.60
2022-12-14T04:35:42.593Z,6.38
2022-12-14T04:38:46.776Z,6.63
2022-12-14T04:41:53.832Z,8.85
2022-12-14T04:45:02.415Z,8.10
2022-12-14T04:48:42.719Z,8.07
2022-12-14T04:52:01.979Z,7.93
2022-12-14T04:55:21.920Z,7.25
2022-12-14T04:58:28.362Z,8.63
2022-12-14T05:01:33.010Z,7.35
2022-12-14T05:04:55.387Z,9.20
2022-12-14T05:08:17.687Z,6.32
2022-12-14T05:15:05.536Z,6.43
2022-12-14T05:18:09.570Z,6.70
2022-12-14T05:21:34.759Z,8.05
2022-12-14T05:24:36.750Z,7.43
2022-12-14T05:27:38.771Z,9.33
2022-12-14T05:30:40.663Z,6.73
2022-12-14T05:33:42.652Z,7.45
2022-12-14T05:36:44.651Z,8.10
2022-12-14T05:39:46.531Z,9.47
2022-12-14T05:42:53.893Z,7.72
2022-12-14T05:46:01.878Z,6.88
2022-12-14T05:49:03.776Z,10.35
2022-12-14T05:52:05.796Z,8.00
2022-12-14T05:55:08.250Z,9.07
2022-12-14T05:58:10.128Z,8.65
2022-12-14T06:01:18.579Z,8.32
2022-12-14T06:04:21.177Z,10.27
2022-12-14T06:07:27.472Z,10.70
2022-12-14T06:10:29.585Z,8.38
2022-12-14T06:13:31.485Z,9.17
2022-12-14T06:16:33.459Z,8.15
2022-12-14T06:19:35.366Z,7.83
2022-12-14T06:22:40.434Z,9.57
2022-12-14T06:25:44.672Z,8.88
2022-12-14T06:28:46.848Z,9.90
2022-12-14T06:31:49.160Z,12.38
2022-12-14T06:34:51.905Z,10.27
2022-12-14T06:37:54.999Z,11.65
2022-12-14T06:40:56.938Z,10.25
2022-12-14T06:44:05.640Z,12.23
2022-12-14T06:47:07.491Z,10.60
2022-12-14T06:50:10.215Z,10.75
2022-12-14T06:53:13.490Z,12.00
2022-12-14T06:56:17.677Z,10.65
2022-12-14T06:59:19.628Z,12.15
2022-12-14T07:02:21.762Z,12.50
2022-12-14T07:05:23.716Z,13.50
2022-12-14T07:08:26.123Z,12.23
2022-12-14T07:11:29.671Z,13.88
2022-12-14T07:14:31.578Z,17.45
2022-12-14T07:17:37.488Z,9.15
2022-12-14T07:20:39.400Z,13.52
2022-12-14T07:23:42.981Z,12.82
2022-12-14T07:26:44.916Z,13.48
2022-12-14T07:29:46.815Z,13.40
2022-12-14T07:32:48.645Z,12.20
2022-12-14T07:35:50.906Z,15.45
2022-12-14T07:38:55.684Z,13.50
2022-12-14T07:41:57.673Z,12.38
2022-12-14T07:45:01.432Z,16.13
2022-12-14T07:48:03.303Z,14.50
2022-12-14T07:51:08.074Z,14.80
2022-12-14T07:54:11.741Z,14.50
2022-12-14T07:57:13.622Z,13.48
2022-12-14T08:00:17.057Z,15.05
2022-12-14T08:03:18.865Z,13.15
2022-12-14T08:06:23.470Z,15.00
2022-12-14T08:09:25.314Z,12.73
2022-12-14T08:12:27.176Z,15.18
2022-12-14T08:15:29.145Z,16.27
2022-12-14T08:18:31.698Z,13.90
2022-12-14T08:21:33.608Z,13.75
2022-12-14T08:24:35.454Z,14.40
2022-12-14T08:27:37.351Z,15.82
2022-12-14T08:30:40.472Z,13.50
2022-12-14T08:33:43.981Z,13.98
2022-12-14T08:36:45.888Z,14.70
2022-12-14T08:39:47.803Z,15.23
2022-12-14T08:42:51.545Z,14.48
2022-12-14T08:45:55.479Z,13.82
2022-12-14T08:48:58.343Z,16.80
2022-12-14T08:52:00.308Z,14.65
2022-12-14T08:55:02.172Z,15.80
2022-12-14T08:58:04.065Z,16.27
2022-12-14T09:01:09.056Z,16.17
2022-12-14T09:04:10.986Z,15.55
2022-12-14T09:07:12.928Z,41.05
2022-12-14T09:10:15.421Z,13.73
2022-12-14T09:13:17.866Z,15.60
2022-12-14T09:16:21.944Z,13.23
2022-12-14T09:19:23.882Z,14.35
2022-12-14T09:22:26.132Z,16.17
2022-12-14T09:25:27.988Z,16.02
2022-12-14T09:28:31.135Z,13.32
2022-12-14T09:31:33.147Z,18.30
2022-12-14T09:34:35.329Z,17.60
2022-12-14T09:37:38.307Z,15.38
2022-12-14T09:43:57.023Z,16.10
2022-12-14T09:47:17.223Z,16.20
2022-12-14T09:50:21.680Z,17.85
2022-12-14T09:53:24.168Z,17.17
2022-12-14T09:56:26.512Z,19.60
2022-12-14T09:59:30.455Z,19.33
2022-12-14T10:02:51.057Z,22.92
2022-12-14T10:06:18.062Z,20.27
2022-12-14T10:09:25.607Z,19.55
2022-12-14T10:12:59.259Z,19.13
2022-12-14T10:16:32.286Z,21.58
2022-12-14T10:19:53.347Z,19.13
2022-12-14T10:22:56.291Z,20.15
2022-12-14T10:29:13.543Z,18.95
2022-12-14T10:32:32.307Z,26.08
2022-12-14T10:36:00.259Z,19.15
2022-12-14T10:39:18.046Z,23.30
2022-12-14T10:42:39.385Z,17.90
2022-12-14T10:45:52.270Z,20.60
2022-12-14T10:49:01.139Z,22.35
2022-12-14T10:52:19.367Z,19.92
2022-12-14T10:55:34.826Z,21.55
2022-12-14T10:58:36.679Z,23.48
2022-12-14T11:01:38.792Z,21.02
2022-12-14T11:04:53.673Z,22.15
2022-12-14T11:07:56.493Z,24.65
2022-12-14T11:11:12.711Z,25.83
2022-12-14T11:14:22.301Z,26.08
2022-12-14T11:17:33.418Z,25.38
2022-12-14T11:20:35.475Z,22.88
2022-12-14T11:23:40.323Z,23.73
2022-12-14T11:26:43.440Z,25.10
2022-12-14T11:29:47.708Z,28.15
2022-12-14T11:32:50.275Z,27.45
2022-12-14T11:35:52.922Z,25.65
2022-12-14T11:39:03.944Z,26.80
2022-12-14T11:42:06.887Z,32.72
2022-12-14T11:48:49.108Z,23.80
2022-12-14T11:51:59.809Z,24.70
2022-12-14T11:55:01.605Z,25.20
2022-12-14T11:58:03.959Z,25.88
2022-12-14T12:01:13.738Z,26.13
2022-12-14T12:04:17.627Z,23.15
2022-12-14T12:07:40.492Z,22.88
2022-12-14T12:10:50.005Z,19.45
2022-12-14T12:14:22.877Z,23.77
2022-12-14T12:17:45.041Z,23.00
2022-12-14T12:20:59.313Z,26.75
2022-12-14T12:24:04.298Z,26.02
2022-12-14T12:27:13.784Z,24.85
2022-12-14T12:30:31.180Z,24.40
2022-12-14T12:33:58.272Z,129.77
2022-12-14T12:40:49.156Z,45.08
2022-12-14T12:43:54.670Z,27.33
2022-12-14T12:47:38.473Z,35.53
2022-12-14T12:50:42.637Z,28.15
2022-12-14T12:53:46.692Z,29.55
2022-12-14T12:56:52.049Z,29.98
2022-12-14T12:59:56.255Z,30.08
2022-12-14T13:03:04.503Z,26.33
2022-12-14T13:06:40.686Z,29.33
2022-12-14T13:09:58.251Z,24.33
2022-12-14T13:13:28.199Z,27.35
2022-12-14T13:16:36.992Z,27.67
2022-12-14T13:19:52.481Z,26.40
2022-12-14T13:23:05.669Z,43.33
2022-12-14T13:27:17.229Z,203.73
2022-12-14T13:30:38.183Z,99.20
2022-12-14T13:33:51.249Z,49.88
2022-12-14T13:37:00.365Z,69.57
2022-12-14T13:40:14.304Z,71.72
2022-12-14T13:43:16.152Z,59.70
2022-12-14T13:46:30.308Z,45.50
2022-12-14T13:49:33.622Z,46.53
2022-12-14T13:52:44.059Z,37.40
2022-12-14T13:56:04.939Z,46.42
2022-12-14T13:59:25.069Z,36.90
2022-12-14T14:02:30.164Z,100.97
2022-12-14T14:05:35.046Z,77.00
2022-12-14T14:08:42.104Z,80.15
2022-12-14T14:11:45.397Z,102.93
2022-12-14T14:14:59.428Z,89.93
2022-12-14T14:18:14.010Z,82.65
2022-12-14T14:21:21.983Z,86.85
2022-12-14T14:24:24.358Z,101.18
2022-12-14T14:27:38.839Z,91.00
2022-12-14T14:30:51.557Z,80.85
2022-12-14T14:33:56.098Z,90.60
2022-12-14T14:36:58.140Z,85.32
2022-12-14T14:40:16.720Z,78.00
2022-12-14T14:43:38.067Z,71.47
2022-12-14T14:46:43.972Z,53.97
2022-12-14T14:49:53.765Z,50.92
2022-12-14T14:53:01.923Z,83.82
2022-12-14T14:56:03.864Z,82.85
2022-12-14T14:59:14.548Z,58.25
2022-12-14T15:02:31.885Z,52.80
2022-12-14T15:05:43.944Z,39.33
2022-12-14T15:09:05.361Z,37.50
2022-12-14T15:12:22.711Z,34.38
2022-12-14T15:15:36.099Z,33.22
2022-12-14T15:18:38.040Z,46.17
2022-12-14T15:21:40.270Z,42.67
2022-12-14T15:24:44.730Z,35.58
2022-12-14T15:27:47.743Z,39.35
2022-12-14T15:30:49.824Z,39.00
2022-12-14T15:33:51.749Z,50.60
2022-12-14T15:36:54.308Z,64.95
2022-12-14T15:40:12.091Z,62.20
2022-12-14T15:43:20.284Z,54.78
2022-12-14T15:46:34.069Z,46.35
2022-12-14T15:49:35.956Z,41.20
2022-12-14T15:52:39.078Z,44.58
2022-12-14T15:55:42.885Z,44.47
2022-12-14T15:58:45.310Z,38.25
2022-12-14T16:02:06.422Z,39.28
2022-12-14T16:05:15.736Z,38.28
2022-12-14T16:08:18.116Z,37.30
2022-12-14T16:11:28.337Z,38.63
2022-12-14T16:14:44.179Z,41.85
2022-12-14T16:17:46.596Z,42.50
2022-12-14T16:21:00.602Z,39.03
2022-12-14T16:24:22.296Z,52.75
2022-12-14T16:27:27.730Z,62.40
2022-12-14T16:30:32.736Z,51.15
2022-12-14T16:33:36.806Z,52.05
2022-12-14T16:36:38.829Z,51.80
2022-12-14T16:39:48.164Z,46.17
2022-12-14T16:42:50.183Z,38.95
2022-12-14T16:45:54.946Z,40.88
2022-12-14T16:49:27.872Z,37.75
2022-12-14T16:52:30.545Z,37.50
2022-12-14T16:55:32.472Z,33.58
2022-12-14T16:58:36.310Z,29.17
2022-12-14T17:01:44.354Z,29.27
2022-12-14T17:04:46.556Z,25.67
2022-12-14T17:07:48.694Z,30.08
2022-12-14T17:10:52.070Z,32.72
2022-12-14T17:13:54.061Z,32.90
2022-12-14T17:17:01.957Z,33.60
2022-12-14T17:20:10.594Z,38.10
2022-12-14T17:23:17.888Z,38.53
2022-12-14T17:26:26.846Z,58.85
2022-12-14T17:29:30.164Z,62.05
2022-12-14T17:32:32.499Z,46.42
2022-12-14T17:35:34.379Z,54.05
2022-12-14T17:38:36.291Z,47.67
2022-12-14T17:41:42.287Z,38.97
2022-12-14T17:44:50.983Z,39.33
2022-12-14T17:47:52.972Z,37.08
2022-12-14T17:50:55.337Z,36.10
2022-12-14T17:53:59.092Z,26.75
2022-12-14T17:57:01.007Z,40.30
2022-12-14T18:00:23.060Z,44.77
2022-12-14T18:03:25.190Z,48.20
2022-12-14T18:06:27.099Z,28.92
2022-12-14T18:09:28.964Z,36.28
2022-12-14T18:12:30.823Z,36.40
2022-12-14T18:15:38.628Z,39.67
2022-12-14T18:18:40.969Z,37.00
2022-12-14T18:21:42.810Z,43.75
2022-12-14T18:24:47.536Z,38.60
2022-12-14T18:27:51.689Z,38.90
2022-12-14T18:31:01.847Z,32.45
2022-12-14T18:34:05.063Z,34.72
2022-12-14T18:37:06.957Z,34.83
2022-12-14T18:40:12.562Z,32.25
2022-12-14T18:43:24.656Z,32.58
2022-12-14T18:46:26.973Z,26.97
2022-12-14T18:49:28.817Z,36.08
2022-12-14T18:55:34.174Z,30.23
2022-12-14T18:58:36.529Z,35.72
2022-12-14T19:01:40.518Z,35.92
2022-12-14T19:04:46.987Z,42.08
2022-12-14T19:07:49.242Z,41.22
2022-12-14T19:10:51.321Z,39.10
2022-12-14T19:13:53.285Z,54.67
2022-12-14T19:16:55.170Z,58.43
2022-12-14T19:19:58.215Z,35.45
2022-12-14T19:23:00.080Z,37.78
2022-12-14T19:26:01.926Z,34.47
2022-12-14T19:29:03.755Z,37.88
2022-12-14T19:32:08.369Z,34.08
2022-12-14T19:35:10.267Z,36.40
2022-12-14T19:38:16.491Z,34.20
2022-12-14T19:41:20.656Z,38.50
2022-12-14T19:44:22.795Z,41.13
2022-12-14T19:47:25.439Z,43.03
2022-12-14T19:50:27.326Z,36.35
2022-12-14T19:53:34.032Z,39.55
2022-12-14T19:56:37.841Z,34.38
2022-12-14T19:59:39.732Z,32.25
2022-12-14T20:02:43.164Z,33.33
2022-12-14T20:05:53.162Z,30.92
2022-12-14T20:09:02.044Z,28.58
2022-12-14T20:12:05.880Z,29.55
2022-12-14T20:15:08.150Z,37.05
2022-12-14T20:18:10.350Z,35.40
2022-12-14T20:21:18.521Z,34.60
2022-12-14T20:24:23.430Z,34.40
2022-12-14T20:27:25.245Z,37.70
2022-12-14T20:32:23.225Z,40.40
2022-12-14T20:35:25.063Z,43.03
2022-12-14T20:38:28.071Z,43.70
2022-12-14T20:41:31.713Z,46.60
2022-12-14T20:44:33.589Z,44.47
2022-12-14T20:47:35.766Z,32.63
2022-12-14T20:50:39.072Z,33.35
2022-12-14T20:53:40.961Z,42.05
2022-12-14T20:56:43.604Z,45.60
2022-12-14T20:59:45.643Z,45.28
2022-12-14T21:02:47.643Z,41.40
2022-12-14T21:05:49.591Z,40.85
2022-12-14T21:09:10.196Z,45.80
2022-12-14T21:12:21.064Z,50.28
2022-12-14T21:15:23.488Z,44.80
2022-12-14T21:18:25.357Z,39.92
2022-12-14T21:21:27.458Z,32.47
2022-12-14T21:25:02.270Z,45.17
2022-12-14T21:27:51.701Z,29.00
2022-12-14T21:30:53.640Z,23.60
2022-12-14T21:33:55.578Z,31.87
2022-12-14T21:36:57.447Z,30.03
2022-12-14T21:40:00.269Z,31.65
2022-12-14T21:46:05.105Z,43.60
2022-12-14T21:49:07.175Z,41.17
2022-12-14T21:52:12.115Z,32.50
2022-12-14T21:55:13.962Z,34.03
2022-12-14T21:58:15.943Z,24.95
2022-12-14T22:01:18.395Z,27.00
2022-12-14T22:04:20.901Z,26.92
2022-12-14T22:07:25.034Z,32.45
2022-12-14T22:10:26.948Z,32.28
2022-12-14T22:13:29.127Z,46.93
2022-12-14T22:16:33.613Z,55.45
2022-12-14T22:19:35.999Z,51.35
2022-12-14T22:22:37.928Z,50.72
2022-12-14T22:25:39.761Z,53.73
2022-12-14T22:28:41.631Z,49.40
2022-12-14T22:31:43.811Z,44.97
2022-12-14T22:34:45.714Z,37.10
2022-12-14T22:37:47.603Z,35.23
2022-12-14T22:40:49.486Z,35.25
2022-12-14T22:43:58.541Z,36.13
2022-12-14T22:47:04.501Z,41.75
2022-12-14T22:50:06.916Z,40.72
2022-12-14T22:53:08.776Z,40.08
2022-12-14T22:56:16.339Z,34.33
2022-12-14T22:59:36.426Z,36.17
2022-12-14T23:02:39.112Z,36.80
2022-12-14T23:05:41.123Z,33.88
2022-12-14T23:09:06.519Z,27.13
2022-12-14T23:12:27.185Z,33.33
2022-12-14T23:15:47.715Z,43.05
2022-12-14T23:19:07.923Z,47.90
2022-12-14T23:22:28.389Z,90.55
2022-12-14T23:25:52.456Z,79.55
2022-12-14T23:29:13.155Z,68.65
2022-12-14T23:32:33.953Z,100.63
2022-12-14T23:35:53.998Z,83.78
2022-12-14T23:39:14.570Z,76.07
2022-12-14T23:42:34.663Z,51.97
2022-12-14T23:45:55.105Z,49.17
2022-12-14T23:49:16.307Z,49.88
2022-12-14T23:52:37.264Z,63.65
2022-12-14T23:55:57.433Z,57.35
2022-12-14T23:59:20.015Z,58.17
